Dobrodošli na spletni strani vremenske postaje Senovo. Vse informacije so informativnega značaja, saj vremenska postaja ni del državne mreže meteoroloških postaj. AKTUALNIH OBVESTIL NI.


Posebna pozornost v zvezi z vremenskimi dogajanji ni potrebna.    Posebna pozornost v zvezi z vremenskimi dogajanji ni potrebna.

Pogled proti Armezu več informacij Pogled proti Armezu


Lisca več informacij Lisca


Radar strel več informacij blitzortung!


Radar padavin več informacij rain snow radar


Obiščite še:

Template documentation
and downloads

And another site



Weather Underground, zgodovina - Tekstovno

Dnevni povzetek za Januar 30, 2018 Enote:  Angleško    Metrično   Obe
« Predhodni Dan
Naslednji Dan »
Dnevni Tedenski Mesečni Letni Po meri
  Višja: Nižja: Povprečje:
Temperatura: TemperatureC °F -0.9 °F 3.6 °F
Točka rosišča: DewpointC °F -2.6 °F 1 °F
Vlažnost: Humidity % 57 % 84 %
Hitrost vetra: WindSpeedKMH mph 0.0 mph 1.4 mph
Sunki vetra: WindSpeedGustKMH mph - -
Veter:- - WSW
Zračni tlak: PressurehPa in 1020.9 in -
Padavine: 0.3 in    
Historical Graphs
 
 
Tabelarni podarki za Januar 30, 2018
Čas Temperatura Točka rosišča Zračni tlak Veter Hitrost vetra Sunki vetra Vlažnost Intenziteta padavin (urna)
TemperatureC °F DewpointC °F PressurehPa in Calm     Humidity % HourlyPrecipMM in
00:01 -0.9 °F -2.2 °F 1022.9 in Calm     91 % 0.0 in
00:06 -0.8 °F -2.1 °F 1022.9 in Calm     91 % 0.0 in
00:11 -0.8 °F -2.1 °F 1021.9 in Calm     91 % 0.0 in
00:16 -0.8 °F -2.1 °F 1021.9 in Calm     91 % 0.0 in
00:21 -0.9 °F -2.2 °F 1021.9 in Calm     91 % 0.0 in
00:23 -0.9 °F -2.2 °F 1021.9 in Calm     91 % 0.0 in
00:28 -0.9 °F -2.2 °F 1021.9 in Calm     91 % 0.0 in
00:33 -0.9 °F -2.2 °F 1021.9 in Calm     91 % 0.0 in
00:38 -0.9 °F -2.2 °F 1021.9 in Calm     91 % 0.0 in
00:43 -0.7 °F -2.0 °F 1021.9 in West 0.3 mph 5.0 mph 91 % 0.0 in
00:48 -0.7 °F -1.8 °F 1021.9 in NW 1.1 mph 5.0 mph 92 % 0.0 in
00:53 -0.6 °F -1.7 °F 1021.9 in NNW 1.1 mph 5.8 mph 92 % 0.0 in
00:58 -0.6 °F -1.7 °F 1020.9 in NNW 0.6 mph 5.8 mph 92 % 0.0 in
01:03 -0.6 °F -1.7 °F 1020.9 in NNW 0.6 mph 3.2 mph 92 % 0.0 in
01:08 -0.5 °F -1.7 °F 1020.9 in NNW 0.3 mph 2.6 mph 92 % 0.0 in
01:13 -0.5 °F -1.7 °F 1020.9 in Calm     92 % 0.0 in
01:18 -0.5 °F -1.7 °F 1020.9 in Calm     92 % 0.0 in
01:23 -0.5 °F -1.7 °F 1020.9 in Calm     92 % 0.0 in
01:28 -0.6 °F -1.7 °F 1020.9 in Calm     92 % 0.0 in
01:33 -0.7 °F -1.8 °F 1020.9 in Calm     92 % 0.0 in
01:38 -0.7 °F -1.8 °F 1020.9 in Calm     92 % 0.0 in
01:43 -0.8 °F -1.9 °F 1020.9 in Calm     92 % 0.0 in
01:48 -0.9 °F -2.1 °F 1020.9 in Calm     92 % 0.0 in
01:53 -0.9 °F -2.1 °F 1020.9 in Calm     92 % 0.0 in
01:58 -0.9 °F -2.1 °F 1021.9 in Calm     92 % 0.0 in
02:03 -0.9 °F -2.1 °F 1021.9 in Calm     92 % 0.0 in
02:08 -0.9 °F -2.1 °F 1021.9 in Calm     92 % 0.0 in
02:13 -0.9 °F -1.9 °F 1021.9 in Calm     93 % 0.0 in
02:18 -0.9 °F -1.9 °F 1021.9 in Calm     93 % 0.0 in
02:23 -0.9 °F -1.9 °F 1021.9 in Calm     93 % 0.0 in
02:28 -0.9 °F -1.9 °F 1021.9 in WSW 0.8 mph 4.3 mph 93 % 0.0 in
02:33 -0.9 °F -1.9 °F 1021.9 in WNW 2.1 mph 4.3 mph 93 % 0.0 in
02:38 -0.7 °F -1.7 °F 1021.9 in NNW 2.6 mph 4.3 mph 93 % 0.0 in
02:43 -0.6 °F -1.6 °F 1022.9 in NNW 2.1 mph 4.3 mph 93 % 0.0 in
02:48 -0.6 °F -1.6 °F 1022.9 in NW 1.0 mph 4.3 mph 93 % 0.0 in
02:53 -0.5 °F -1.5 °F 1022.9 in WNW 0.3 mph 2.6 mph 93 % 0.0 in
02:58 -0.5 °F -1.5 °F 1021.9 in WNW 1.4 mph 4.3 mph 93 % 0.0 in
03:03 -0.5 °F -1.5 °F 1021.9 in WNW 1.6 mph 4.3 mph 93 % 0.0 in
03:08 -0.4 °F -1.4 °F 1021.9 in WNW 1.6 mph 4.3 mph 93 % 0.0 in
03:13 -0.3 °F -1.2 °F 1021.9 in WNW 2.6 mph 5.5 mph 94 % 0.0 in
03:18 -0.3 °F -1.2 °F 1021.9 in South 2.4 mph 5.5 mph 94 % 0.0 in
03:24 -0.3 °F -1.2 °F 1021.9 in WSW 2.1 mph 5.0 mph 94 % 0.0 in
03:28 -0.3 °F -1.2 °F 1022.9 in WSW 1.0 mph 4.7 mph 94 % 0.0 in
03:34 -0.4 °F -1.2 °F 1022.9 in WNW 0.5 mph 4.0 mph 94 % 0.0 in
03:39 -0.4 °F -1.2 °F 1022.9 in NW 0.3 mph 4.0 mph 94 % 0.0 in
03:44 -0.4 °F -1.2 °F 1022.9 in Calm   1.4 mph 94 % 0.0 in
03:49 -0.5 °F -1.3 °F 1022.9 in Calm   3.2 mph 94 % 0.0 in
03:54 -0.6 °F -1.4 °F 1022.9 in NW 0.6 mph 4.0 mph 94 % 0.0 in
03:59 -0.7 °F -1.6 °F 1021.9 in NW 1.1 mph 4.0 mph 94 % 0.0 in
04:04 -0.7 °F -1.6 °F 1021.9 in SSW 1.0 mph 3.2 mph 94 % 0.0 in
04:08 -0.6 °F -1.4 °F 1021.9 in SW 1.1 mph 3.5 mph 94 % 0.0 in
04:14 -0.6 °F -1.4 °F 1021.9 in WSW 1.0 mph 3.5 mph 94 % 0.0 in
04:18 -0.6 °F -1.4 °F 1021.9 in WSW 1.6 mph 5.5 mph 94 % 0.0 in
04:24 -0.7 °F -1.6 °F 1021.9 in SW 1.4 mph 5.5 mph 94 % 0.0 in
04:28 -0.7 °F -1.6 °F 1021.9 in ENE 0.3 mph 3.5 mph 94 % 0.0 in
04:34 -0.7 °F -1.6 °F 1021.9 in West 1.0 mph 4.3 mph 94 % 0.0 in
04:38 -0.8 °F -1.7 °F 1021.9 in West 1.3 mph 4.3 mph 94 % 0.0 in
04:44 -0.7 °F -1.6 °F 1021.9 in NNW 1.4 mph 5.0 mph 94 % 0.0 in
04:48 -0.6 °F -1.4 °F 1021.9 in NNW 1.8 mph 5.0 mph 94 % 0.0 in
04:54 -0.6 °F -1.4 °F 1021.9 in NNW 0.5 mph 4.0 mph 94 % 0.0 in
04:59 -0.5 °F -1.3 °F 1022.9 in WSW 0.5 mph 4.0 mph 94 % 0.0 in
05:04 -0.5 °F -1.3 °F 1022.9 in WSW 0.8 mph 4.0 mph 94 % 0.0 in
05:08 -0.5 °F -1.3 °F 1022.9 in SW 0.8 mph 4.0 mph 94 % 0.0 in
05:14 -0.6 °F -1.4 °F 1022.9 in West 0.6 mph 3.5 mph 94 % 0.0 in
05:19 -0.6 °F -1.4 °F 1022.9 in NNW 1.3 mph 4.7 mph 94 % 0.0 in
05:23 -0.5 °F -1.3 °F 1022.9 in NW 1.9 mph 4.7 mph 94 % 0.0 in
05:29 -0.5 °F -1.3 °F 1022.9 in WNW 1.4 mph 4.7 mph 94 % 0.0 in
05:33 -0.4 °F -1.1 °F 1022.9 in WSW 2.9 mph 6.1 mph 95 % 0.0 in
05:39 -0.2 °F -0.9 °F 1022.9 in WSW 3.7 mph 6.1 mph 95 % 0.0 in
05:44 -0.3 °F -1.0 °F 1022.9 in West 2.1 mph 5.5 mph 95 % 0.0 in
05:49 -0.3 °F -1.0 °F 1022.9 in NNW 0.6 mph 3.5 mph 95 % 0.0 in
05:53 -0.3 °F -1.0 °F 1022.9 in Calm     95 % 0.0 in
05:59 -0.3 °F -1.0 °F 1022.9 in Calm     95 % 0.0 in
06:04 -0.4 °F -1.1 °F 1022.9 in Calm     95 % 0.0 in
06:09 -0.4 °F -1.1 °F 1022.9 in Calm     95 % 0.0 in
06:14 -0.4 °F -1.1 °F 1022.9 in Calm     95 % 0.0 in
06:19 -0.4 °F -1.1 °F 1022.9 in Calm     95 % 0.0 in
06:24 -0.3 °F -1.0 °F 1022.9 in West 0.3 mph 4.0 mph 95 % 0.0 in
06:28 -0.3 °F -1.0 °F 1023.9 in West 1.1 mph 4.0 mph 95 % 0.0 in
06:34 -0.3 °F -1.0 °F 1023.9 in WNW 1.6 mph 4.0 mph 95 % 0.0 in
06:39 -0.4 °F -1.1 °F 1023.9 in NNW 0.6 mph 4.0 mph 95 % 0.0 in
06:44 -0.4 °F -1.1 °F 1023.9 in Calm     95 % 0.0 in
06:49 -0.3 °F -1.0 °F 1023.9 in Calm     95 % 0.0 in
06:53 -0.3 °F -1.0 °F 1023.9 in Calm     95 % 0.0 in
06:59 -0.4 °F -1.1 °F 1024.9 in Calm     95 % 0.0 in
07:03 -0.5 °F -1.2 °F 1024.9 in Calm     95 % 0.0 in
07:09 -0.5 °F -1.2 °F 1024.9 in Calm     95 % 0.0 in
07:14 -0.5 °F -1.2 °F 1024.9 in Calm     95 % 0.0 in
07:19 -0.6 °F -1.3 °F 1024.9 in Calm     95 % 0.0 in
07:24 -0.6 °F -1.3 °F 1024.9 in NNW 0.2 mph 2.1 mph 95 % 0.0 in
07:29 -0.7 °F -1.4 °F 1024.9 in NNW 0.2 mph 2.1 mph 95 % 0.0 in
07:34 -0.8 °F -1.5 °F 1024.9 in Calm     95 % 0.0 in
07:39 -0.8 °F -1.5 °F 1024.9 in Calm   2.1 mph 95 % 0.0 in
07:44 -0.8 °F -1.5 °F 1024.9 in Calm   2.1 mph 95 % 0.0 in
07:49 -0.8 °F -1.5 °F 1024.9 in Calm     95 % 0.0 in
07:54 -0.8 °F -1.5 °F 1024.9 in Calm     95 % 0.0 in
07:59 -0.9 °F -1.6 °F 1024.9 in Calm     95 % 0.0 in
08:04 -0.8 °F -1.5 °F 1024.9 in Calm     95 % 0.0 in
08:09 -0.9 °F -1.6 °F 1024.9 in Calm     95 % 0.0 in
08:14 -0.8 °F -1.5 °F 1024.9 in Calm     95 % 0.0 in
08:19 -0.8 °F -1.5 °F 1024.9 in Calm     95 % 0.0 in
08:24 -0.7 °F -1.4 °F 1024.9 in Calm     95 % 0.0 in
08:29 -0.5 °F -1.2 °F 1024.9 in Calm     95 % 0.0 in
08:34 -0.4 °F -1.1 °F 1024.9 in Calm     95 % 0.0 in
08:39 -0.2 °F -0.8 °F 1024.9 in Calm     96 % 0.0 in
08:44 0.0 °F -0.6 °F 1024.9 in Calm     96 % 0.0 in
08:49 0.1 °F -0.4 °F 1024.9 in Calm   2.6 mph 96 % 0.0 in
08:54 0.4 °F -0.2 °F 1024.9 in SW 1.1 mph 4.3 mph 96 % 0.0 in
08:59 0.7 °F 0.1 °F 1026.0 in SW 1.6 mph 4.3 mph 96 % 0.0 in
09:04 0.9 °F 0.3 °F 1026.0 in SW 0.5 mph 3.5 mph 96 % 0.3 in
09:09 1.0 °F 0.4 °F 1026.0 in Calm     96 % 0.3 in
09:14 1.2 °F 0.6 °F 1026.0 in Calm     96 % 0.3 in
09:19 1.5 °F 0.9 °F 1026.0 in South 0.2 mph 2.1 mph 96 % 0.3 in
09:24 1.7 °F 1.3 °F 1026.0 in South 0.2 mph 2.1 mph 97 % 0.3 in
09:29 1.9 °F 1.5 °F 1027.0 in Calm     97 % 0.3 in
09:34 2.1 °F 1.6 °F 1027.0 in Calm     96 % 0.3 in
09:39 2.5 °F 2.1 °F 1027.0 in Calm     97 % 0.3 in
09:44 2.8 °F 2.4 °F 1027.0 in Calm     97 % 0.3 in
09:49 3.0 °F 2.6 °F 1027.0 in Calm   1.4 mph 97 % 0.3 in
09:54 3.4 °F 2.9 °F 1027.0 in SSW 0.2 mph 2.1 mph 97 % 0.3 in
09:59 3.7 °F 3.3 °F 1027.0 in South 0.5 mph 2.6 mph 97 % 0.3 in
10:04 3.9 °F 3.4 °F 1027.0 in SSE 0.8 mph 3.5 mph 97 % 0.0 in
10:09 4.2 °F 3.8 °F 1027.0 in SSE 0.5 mph 3.5 mph 97 % 0.0 in
10:14 4.4 °F 3.9 °F 1027.0 in Calm     97 % 0.0 in
10:19 4.7 °F 4.3 °F 1027.0 in Calm     97 % 0.0 in
10:24 4.9 °F 4.4 °F 1027.0 in SE 0.2 mph 5.0 mph 97 % 0.0 in
10:29 5.4 °F 4.9 °F 1026.0 in SE 2.4 mph 6.1 mph 97 % 0.0 in
10:34 5.8 °F 5.3 °F 1026.0 in SE 4.5 mph 7.6 mph 97 % 0.0 in
10:39 6.2 °F 5.8 °F 1026.0 in SE 5.1 mph 7.6 mph 97 % 0.0 in
10:44 6.7 °F 6.3 °F 1027.0 in South 5.8 mph 9.3 mph 97 % 0.0 in
10:49 7.2 °F 6.8 °F 1027.0 in South 6.0 mph 10.1 mph 97 % 0.0 in
10:54 7.6 °F 7.2 °F 1027.0 in SSW 6.1 mph 10.1 mph 97 % 0.0 in
10:59 8.0 °F 7.6 °F 1027.0 in SSW 6.1 mph 9.7 mph 97 % 0.0 in
11:04 8.3 °F 7.8 °F 1027.0 in SSW 5.8 mph 9.0 mph 97 % 0.0 in
11:09 8.5 °F 8.1 °F 1027.0 in SSW 5.3 mph 9.0 mph 97 % 0.0 in
11:14 8.7 °F 8.3 °F 1026.0 in SSW 5.0 mph 9.0 mph 97 % 0.0 in
11:19 8.9 °F 8.4 °F 1026.0 in SSW 5.6 mph 10.5 mph 97 % 0.0 in
11:24 9.2 °F 8.6 °F 1026.0 in SSW 6.4 mph 10.5 mph 96 % 0.0 in
11:29 9.8 °F 9.3 °F 1027.0 in SSW 5.8 mph 9.0 mph 97 % 0.0 in
11:34 10.1 °F 9.5 °F 1027.0 in SSW 5.3 mph 8.7 mph 96 % 0.0 in
11:39 10.4 °F 9.8 °F 1027.0 in SSW 5.5 mph 9.7 mph 96 % 0.0 in
11:44 10.7 °F 10.1 °F 1026.0 in SSW 6.4 mph 10.5 mph 96 % 0.0 in
11:49 10.9 °F 10.3 °F 1026.0 in SSW 6.9 mph 10.5 mph 96 % 0.0 in
11:54 11.0 °F 10.2 °F 1026.0 in SW 6.6 mph 9.7 mph 95 % 0.0 in
11:59 11.3 °F 10.4 °F 1026.0 in SW 5.8 mph 9.3 mph 94 % 0.0 in
12:04 11.6 °F 10.5 °F 1026.0 in SSW 5.6 mph 9.0 mph 93 % 0.0 in
12:09 11.7 °F 10.6 °F 1026.0 in SSW 7.4 mph 12.6 mph 93 % 0.0 in
12:14 11.9 °F 10.5 °F 1024.9 in SSW 8.4 mph 12.6 mph 91 % 0.0 in
12:19 12.0 °F 10.2 °F 1024.9 in SSW 7.4 mph 10.8 mph 89 % 0.0 in
12:24 12.3 °F 10.2 °F 1024.9 in SSW 6.8 mph 10.1 mph 87 % 0.0 in
12:29 12.5 °F 10.1 °F 1024.9 in SSW 6.1 mph 10.1 mph 85 % 0.0 in
12:34 12.6 °F 9.9 °F 1024.9 in SW 5.1 mph 8.7 mph 84 % 0.0 in
12:39 12.7 °F 9.7 °F 1024.9 in SSW 4.3 mph 7.2 mph 82 % 0.0 in
12:44 12.9 °F 9.7 °F 1026.0 in SSW 4.5 mph 7.9 mph 81 % 0.0 in
12:49 13.2 °F 9.6 °F 1026.0 in SSW 5.0 mph 7.9 mph 79 % 0.0 in
12:54 13.3 °F 9.3 °F 1026.0 in SSW 5.1 mph 9.0 mph 77 % 0.0 in
12:59 13.4 °F 9.1 °F 1024.9 in SSW 5.6 mph 11.9 mph 75 % 0.0 in
13:04 13.4 °F 8.8 °F 1024.9 in SSW 6.3 mph 11.9 mph 74 % 0.0 in
13:09 13.4 °F 8.7 °F 1024.9 in SSW 6.3 mph 9.7 mph 73 % 0.0 in
13:14 13.5 °F 8.3 °F 1023.9 in SSW 5.8 mph 9.7 mph 71 % 0.0 in
13:19 13.5 °F 8.1 °F 1023.9 in SSW 5.5 mph 9.7 mph 70 % 0.0 in
13:24 13.4 °F 7.6 °F 1023.9 in South 5.0 mph 9.7 mph 68 % 0.0 in
13:29 13.5 °F 7.5 °F 1026.0 in SSW 3.9 mph 8.7 mph 67 % 0.0 in
13:34 13.5 °F 7.3 °F 1026.0 in SW 3.2 mph 7.9 mph 66 % 0.0 in
13:39 13.5 °F 7.3 °F 1026.0 in SSW 4.0 mph 7.9 mph 66 % 0.0 in
13:44 13.4 °F 6.9 °F 1024.9 in SSW 3.4 mph 7.9 mph 65 % 0.0 in
13:49 13.4 °F 6.7 °F 1024.9 in SSW 2.3 mph 4.7 mph 64 % 0.0 in
13:54 13.5 °F 6.8 °F 1024.9 in South 2.4 mph 4.7 mph 64 % 0.0 in
13:59 13.5 °F 6.6 °F 1024.9 in SSW 1.6 mph 5.0 mph 63 % 0.0 in
14:04 13.5 °F 6.6 °F 1024.9 in WSW 3.2 mph 7.9 mph 63 % 0.0 in
14:09 13.5 °F 6.3 °F 1024.9 in SW 4.8 mph 7.9 mph 62 % 0.0 in
14:14 13.6 °F 6.4 °F 1024.9 in South 3.5 mph 6.4 mph 62 % 0.0 in
14:19 13.5 °F 6.1 °F 1024.9 in SE 3.2 mph 6.9 mph 61 % 0.0 in
14:24 13.4 °F 5.8 °F 1024.9 in ESE 4.0 mph 8.7 mph 60 % 0.0 in
14:29 13.4 °F 5.6 °F 1023.9 in SE 3.7 mph 8.7 mph 59 % 0.0 in
14:34 13.5 °F 5.6 °F 1023.9 in SSE 2.7 mph 6.1 mph 59 % 0.0 in
14:35 13.6 °F 5.7 °F 1023.9 in SSE 2.9 mph 6.4 mph 59 % 0.0 in
14:40 13.5 °F 5.6 °F 1024.9 in SSE 3.9 mph 6.9 mph 59 % 0.0 in
14:45 13.5 °F 5.6 °F 1024.9 in SSE 5.1 mph 6.9 mph 59 % 0.0 in
14:50 13.5 °F 5.6 °F 1024.9 in SSE 5.1 mph 6.9 mph 59 % 0.0 in
14:55 13.5 °F 5.6 °F 1024.9 in SE 4.5 mph 6.9 mph 59 % 0.0 in
15:00 13.7 °F 5.8 °F 1024.9 in SSE 3.7 mph 6.1 mph 59 % 0.0 in
15:05 13.7 °F 5.8 °F 1024.9 in South 2.6 mph 6.1 mph 59 % 0.0 in
15:10 13.7 °F 5.6 °F 1024.9 in South 2.1 mph 4.0 mph 58 % 0.0 in
15:15 13.7 °F 5.6 °F 1024.9 in South 1.9 mph 4.3 mph 58 % 0.0 in
15:20 13.7 °F 5.6 °F 1024.9 in South 1.6 mph 4.3 mph 58 % 0.0 in
15:25 13.6 °F 5.5 °F 1023.9 in South 2.3 mph 4.0 mph 58 % 0.0 in
15:30 13.4 °F 5.3 °F 1023.9 in SSW 2.3 mph 4.0 mph 58 % 0.0 in
15:36 13.0 °F 4.9 °F 1023.9 in South 1.8 mph 4.0 mph 58 % 0.0 in
15:41 12.4 °F 4.3 °F 1023.9 in SSW 1.8 mph 4.3 mph 58 % 0.0 in
15:46 12.0 °F 3.7 °F 1023.9 in SSW 2.1 mph 4.3 mph 57 % 0.0 in
15:51 11.4 °F 3.2 °F 1023.9 in SSW 1.9 mph 4.0 mph 57 % 0.0 in
15:56 10.8 °F 2.8 °F 1023.9 in WNW 1.0 mph 4.0 mph 58 % 0.0 in
16:01 10.4 °F 2.5 °F 1023.9 in NW 0.6 mph 4.0 mph 58 % 0.0 in
16:06 9.9 °F 2.3 °F 1023.9 in West 1.3 mph 4.0 mph 59 % 0.0 in
16:11 9.4 °F 1.8 °F 1024.9 in WNW 2.1 mph 5.0 mph 59 % 0.0 in
16:16 9.2 °F 1.8 °F 1024.9 in NW 2.3 mph 5.5 mph 60 % 0.0 in
16:21 8.8 °F 1.7 °F 1024.9 in WNW 1.1 mph 5.5 mph 61 % 0.0 in
16:26 8.4 °F 1.6 °F 1023.9 in NW 0.5 mph 4.0 mph 62 % 0.0 in
16:31 8.3 °F 1.4 °F 1023.9 in WNW 1.4 mph 4.0 mph 62 % 0.0 in
16:36 8.0 °F 1.4 °F 1023.9 in WNW 1.6 mph 4.0 mph 63 % 0.0 in
16:41 7.7 °F 1.3 °F 1023.9 in WNW 0.6 mph 4.0 mph 64 % 0.0 in
16:46 7.5 °F 1.3 °F 1023.9 in West 0.5 mph 4.0 mph 65 % 0.0 in
16:51 7.2 °F 1.3 °F 1023.9 in WNW 1.0 mph 4.0 mph 66 % 0.0 in
16:56 7.0 °F 1.1 °F 1024.9 in NW 1.4 mph 5.0 mph 66 % 0.0 in
17:01 6.8 °F 1.1 °F 1024.9 in NW 1.3 mph 5.0 mph 67 % 0.0 in
17:06 6.6 °F 1.1 °F 1024.9 in NNW 0.5 mph 2.6 mph 68 % 0.0 in
17:11 6.4 °F 0.9 °F 1024.9 in NW 0.6 mph 5.0 mph 68 % 0.0 in
17:16 6.2 °F 0.9 °F 1024.9 in NW 2.1 mph 5.8 mph 69 % 0.0 in
17:21 6.1 °F 0.8 °F 1024.9 in WNW 1.8 mph 5.8 mph 69 % 0.0 in
17:26 5.8 °F 0.7 °F 1023.9 in WNW 0.5 mph 2.6 mph 70 % 0.0 in
17:31 5.6 °F 0.8 °F 1023.9 in NW 0.2 mph 4.3 mph 71 % 0.0 in
17:36 5.4 °F 0.6 °F 1023.9 in NW 1.3 mph 4.3 mph 71 % 0.0 in
17:41 5.3 °F 0.4 °F 1024.9 in WNW 2.6 mph 5.0 mph 71 % 0.0 in
17:46 5.1 °F 0.4 °F 1024.9 in WNW 1.6 mph 5.0 mph 72 % 0.0 in
17:51 4.9 °F 0.3 °F 1024.9 in WNW 1.0 mph 3.5 mph 72 % 0.0 in
17:56 4.7 °F 0.3 °F 1024.9 in WNW 0.6 mph 3.5 mph 73 % 0.0 in
18:01 4.5 °F 0.1 °F 1024.9 in Calm     73 % 0.0 in
18:06 4.4 °F 0.0 °F 1024.9 in Calm   4.7 mph 73 % 0.0 in
18:11 4.3 °F 0.1 °F 1024.9 in WNW 0.6 mph 4.7 mph 74 % 0.0 in
18:16 4.0 °F -0.2 °F 1024.9 in NW 0.5 mph 4.0 mph 74 % 0.0 in
18:21 3.8 °F -0.2 °F 1024.9 in Calm   1.8 mph 75 % 0.0 in
18:26 3.7 °F -0.3 °F 1024.9 in Calm     75 % 0.0 in
18:31 3.6 °F -0.4 °F 1024.9 in Calm     75 % 0.0 in
18:36 3.4 °F -0.6 °F 1024.9 in Calm     75 % 0.0 in
18:41 3.3 °F -0.7 °F 1024.9 in Calm     75 % 0.0 in
18:46 3.2 °F -0.6 °F 1024.9 in Calm     76 % 0.0 in
18:51 3.1 °F -0.7 °F 1024.9 in Calm     76 % 0.0 in
18:57 3.0 °F -0.8 °F 1024.9 in Calm     76 % 0.0 in
19:02 2.9 °F -0.7 °F 1024.9 in Calm     77 % 0.0 in
19:07 2.8 °F -0.8 °F 1024.9 in Calm     77 % 0.0 in
19:12 2.7 °F -0.9 °F 1024.9 in Calm     77 % 0.0 in
19:17 2.6 °F -1.1 °F 1024.9 in Calm     77 % 0.0 in
19:22 2.4 °F -1.2 °F 1024.9 in Calm     77 % 0.0 in
19:27 2.4 °F -1.1 °F 1023.9 in Calm     78 % 0.0 in
19:32 2.3 °F -1.2 °F 1023.9 in Calm     78 % 0.0 in
19:37 2.2 °F -1.2 °F 1023.9 in Calm     78 % 0.0 in
19:42 2.1 °F -1.3 °F 1023.9 in Calm     78 % 0.0 in
19:47 2.0 °F -1.4 °F 1023.9 in Calm     78 % 0.0 in
19:52 2.0 °F -1.4 °F 1023.9 in Calm     78 % 0.0 in
19:57 1.9 °F -1.3 °F 1023.9 in NW 0.5 mph 3.2 mph 79 % 0.0 in
20:02 1.8 °F -1.4 °F 1023.9 in NW 1.4 mph 4.0 mph 79 % 0.0 in
20:07 1.7 °F -1.6 °F 1023.9 in WNW 1.6 mph 4.0 mph 79 % 0.0 in
20:12 1.7 °F -1.6 °F 1024.9 in West 0.6 mph 3.5 mph 79 % 0.0 in
20:17 1.7 °F -1.6 °F 1024.9 in West 0.2 mph 2.1 mph 79 % 0.0 in
20:22 1.7 °F -1.4 °F 1024.9 in NW 0.2 mph 4.0 mph 80 % 0.0 in
20:27 1.6 °F -1.5 °F 1024.9 in NW 0.5 mph 4.0 mph 80 % 0.0 in
20:32 1.6 °F -1.5 °F 1024.9 in NW 0.5 mph 3.5 mph 80 % 0.0 in
20:37 1.5 °F -1.6 °F 1024.9 in NW 0.5 mph 3.5 mph 80 % 0.0 in
20:42 1.5 °F -1.6 °F 1024.9 in NW 0.3 mph 3.2 mph 80 % 0.0 in
20:47 1.5 °F -1.4 °F 1024.9 in Calm     81 % 0.0 in
20:52 1.4 °F -1.5 °F 1024.9 in NW 0.2 mph 2.1 mph 81 % 0.0 in
20:57 1.4 °F -1.5 °F 1024.9 in NW 0.2 mph 2.1 mph 81 % 0.0 in
21:02 1.4 °F -1.5 °F 1024.9 in Calm     81 % 0.0 in
21:07 1.3 °F -1.4 °F 1024.9 in NW 0.3 mph 3.2 mph 82 % 0.0 in
21:12 1.3 °F -1.4 °F 1024.9 in NW 1.4 mph 4.3 mph 82 % 0.0 in
21:17 1.3 °F -1.4 °F 1024.9 in NW 1.0 mph 4.3 mph 82 % 0.0 in
21:22 1.2 °F -1.6 °F 1024.9 in Calm   3.5 mph 82 % 0.0 in
21:27 1.2 °F -1.4 °F 1024.9 in Calm     83 % 0.0 in
21:32 1.2 °F -1.4 °F 1024.9 in Calm     83 % 0.0 in
21:37 1.1 °F -1.4 °F 1024.9 in Calm     83 % 0.0 in
21:42 1.1 °F -1.4 °F 1024.9 in Calm     83 % 0.0 in
21:47 1.0 °F -1.6 °F 1024.9 in Calm     83 % 0.0 in
21:52 0.9 °F -1.5 °F 1024.9 in Calm     84 % 0.0 in
21:58 0.9 °F -1.5 °F 1024.9 in Calm     84 % 0.0 in
22:03 0.8 °F -1.6 °F 1024.9 in Calm     84 % 0.0 in
22:08 0.7 °F -1.7 °F 1024.9 in Calm     84 % 0.0 in
22:13 0.6 °F -1.8 °F 1024.9 in Calm     84 % 0.0 in
22:18 0.6 °F -1.8 °F 1024.9 in Calm     84 % 0.0 in
22:23 0.6 °F -1.8 °F 1024.9 in Calm     84 % 0.0 in
22:28 0.5 °F -1.7 °F 1024.9 in Calm     85 % 0.0 in
22:33 0.4 °F -1.8 °F 1024.9 in Calm     85 % 0.0 in
22:38 0.4 °F -1.8 °F 1024.9 in Calm     85 % 0.0 in
22:43 0.3 °F -1.9 °F 1024.9 in Calm     85 % 0.0 in
22:48 0.2 °F -2.0 °F 1024.9 in Calm     85 % 0.0 in
22:53 0.1 °F -2.1 °F 1024.9 in Calm     85 % 0.0 in
22:58 0.1 °F -2.1 °F 1024.9 in Calm     85 % 0.0 in
23:03 0.1 °F -2.1 °F 1024.9 in Calm     85 % 0.0 in
23:08 0.0 °F -2.2 °F 1024.9 in Calm     85 % 0.0 in
23:13 -0.1 °F -2.2 °F 1023.9 in Calm     86 % 0.0 in
23:18 -0.1 °F -2.2 °F 1023.9 in Calm     86 % 0.0 in
23:23 -0.1 °F -2.2 °F 1023.9 in Calm     86 % 0.0 in
23:28 -0.2 °F -2.3 °F 1023.9 in Calm     86 % 0.0 in
23:33 -0.3 °F -2.3 °F 1023.9 in Calm     86 % 0.0 in
23:38 -0.3 °F -2.3 °F 1023.9 in Calm     86 % 0.0 in
23:43 -0.3 °F -2.3 °F 1026.0 in Calm     86 % 0.0 in
23:48 -0.4 °F -2.4 °F 1026.0 in Calm     86 % 0.0 in
23:53 -0.4 °F -2.4 °F 1026.0 in Calm     86 % 0.0 in
23:58 -0.5 °F -2.6 °F 1026.0 in Calm     86 % 0.0 in
Vremenska postaja Senovo
Podatki zbrani iz Weather Underground - 3 mb

Script developed by  Jim McMurry - jmcmurry@mwt.net Adapted for the template by  Wim van der Kuil - Leuven-Template.eu

Vremenski podatki so objavljeni na:

European Weather Network

WeatherCloud

Weather Underground

AWEKAS

HAMweather, WeatherForYou, PWS Weather

MapView

Geostik

Slovenia weather network

Oprema, ki se uporablja:

Vremenski program
Cumulus

Vremenski server
Asus

Cumulus

Asus